Time;durP1;ratioP1;P1;durP2;ratioP2;P2;SDS_P1;SDS_P2;PMS_P1;PMS_P2;Temp;Humidity;BMP_temperature;BMP_pressure;BME280_temperature;BME280_humidity;BME280_pressure;Samples;Min_cycle;Max_cycle;Signal;HPM_P1;HPM_P2
2023/09/21 00:01:17;;;;;;;2.90;2.53;;;18.20;99.90;;;;;;5055921;28;20431;-74
2023/09/21 00:03:47;;;;;;;3.67;3.10;;;18.20;99.90;;;;;;5054336;28;20481;-74
2023/09/21 00:06:17;;;;;;;2.50;2.20;;;18.20;99.90;;;;;;5054622;28;20438;-73
2023/09/21 00:08:48;;;;;;;2.80;2.27;;;18.20;99.90;;;;;;5055521;28;20428;-74
2023/09/21 00:11:17;;;;;;;3.60;2.57;;;18.10;99.90;;;;;;5054443;28;20438;-74
2023/09/21 00:13:49;;;;;;;3.23;2.50;;;18.10;99.90;;;;;;5053988;28;20477;-74
2023/09/21 00:16:19;;;;;;;3.40;2.37;;;18.10;99.90;;;;;;5055391;28;20468;-73
2023/09/21 00:18:47;;;;;;;3.07;2.77;;;18.10;99.90;;;;;;5055689;28;20797;-73
2023/09/21 00:21:16;;;;;;;3.80;2.53;;;18.10;99.90;;;;;;5055216;28;20426;-73
2023/09/21 00:23:47;;;;;;;3.07;2.20;;;18.10;99.90;;;;;;5055776;28;20466;-73
2023/09/21 00:26:16;;;;;;;3.57;2.63;;;18.10;99.90;;;;;;5053988;28;20441;-73
2023/09/21 00:28:49;;;;;;;2.20;2.00;;;18.00;99.90;;;;;;5055299;28;20969;-73
2023/09/21 00:31:17;;;;;;;2.40;2.07;;;18.10;99.90;;;;;;5053866;28;20805;-73
2023/09/21 00:33:46;;;;;;;3.90;2.50;;;18.10;99.90;;;;;;5053746;28;20886;-73
2023/09/21 00:36:17;;;;;;;3.67;2.73;;;18.00;99.90;;;;;;5055317;28;20437;-73
2023/09/21 00:38:46;;;;;;;4.07;3.17;;;18.00;99.90;;;;;;5053740;28;20449;-74
2023/09/21 00:41:15;;;;;;;4.70;2.33;;;18.10;99.90;;;;;;5053718;28;20529;-74
2023/09/21 00:43:44;;;;;;;3.60;2.13;;;18.00;99.90;;;;;;5053671;28;21047;-73
2023/09/21 00:46:14;;;;;;;3.57;2.80;;;18.00;99.90;;;;;;5054729;28;20462;-73
2023/09/21 00:48:43;;;;;;;5.73;2.77;;;18.00;99.90;;;;;;5053409;28;20454;-73
2023/09/21 00:51:16;;;;;;;2.93;2.50;;;18.10;99.90;;;;;;5053598;28;20512;-73
2023/09/21 00:53:47;;;;;;;3.50;2.87;;;18.00;99.90;;;;;;5055120;28;20512;-74
2023/09/21 00:56:18;;;;;;;3.77;2.80;;;18.00;99.90;;;;;;5053504;28;20529;-73
2023/09/21 00:58:50;;;;;;;4.87;2.40;;;18.00;99.90;;;;;;5053481;28;20401;-74
2023/09/21 01:01:27;;;;;;;3.10;2.67;;;18.00;99.90;;;;;;5053538;28;20409;-73
2023/09/21 01:03:56;;;;;;;3.03;2.73;;;18.00;99.90;;;;;;5054362;28;20440;-73
2023/09/21 01:06:25;;;;;;;3.10;2.70;;;18.00;99.90;;;;;;5054866;28;20421;-74
2023/09/21 01:08:54;;;;;;;3.60;2.57;;;17.90;99.90;;;;;;5054195;28;20466;-73
2023/09/21 01:11:24;;;;;;;2.93;2.43;;;17.90;99.90;;;;;;5053998;28;20813;-73
2023/09/21 01:13:52;;;;;;;3.97;2.47;;;18.00;99.90;;;;;;5053501;28;20492;-73
2023/09/21 01:16:23;;;;;;;3.40;2.90;;;17.90;99.90;;;;;;5054434;28;20533;-73
2023/09/21 01:18:53;;;;;;;4.03;2.60;;;17.90;99.90;;;;;;5054417;28;20746;-74
2023/09/21 01:21:29;;;;;;;4.30;3.13;;;17.90;99.90;;;;;;5053034;28;20438;-73
2023/09/21 01:23:58;;;;;;;6.13;2.70;;;17.90;99.90;;;;;;5052977;28;20493;-73
2023/09/21 01:26:27;;;;;;;3.53;2.60;;;17.90;99.90;;;;;;5054437;28;20470;-74
2023/09/21 01:28:56;;;;;;;3.07;2.77;;;17.90;99.90;;;;;;5052845;28;20466;-74
2023/09/21 01:31:25;;;;;;;3.03;2.40;;;17.90;99.90;;;;;;5053014;28;20516;-74
2023/09/21 01:33:53;;;;;;;3.40;2.80;;;17.90;99.90;;;;;;5052775;28;20447;-74
2023/09/21 01:36:23;;;;;;;3.03;2.50;;;17.90;99.90;;;;;;5052805;28;20486;-73
2023/09/21 01:38:52;;;;;;;3.23;2.93;;;17.80;99.90;;;;;;5054464;28;20513;-73
2023/09/21 01:41:23;;;;;;;3.67;2.70;;;17.80;99.90;;;;;;5052737;28;20449;-74
2023/09/21 01:43:51;;;;;;;3.47;2.87;;;17.80;99.90;;;;;;5052787;28;20482;-74
2023/09/21 01:46:21;;;;;;;5.83;2.60;;;17.80;99.90;;;;;;5054190;28;20807;-74
2023/09/21 01:48:51;;;;;;;3.43;2.47;;;17.80;99.90;;;;;;5053636;28;20947;-73
2023/09/21 01:51:21;;;;;;;4.43;2.87;;;17.80;99.90;;;;;;5053790;28;20422;-73
2023/09/21 01:53:49;;;;;;;4.00;2.70;;;17.80;99.90;;;;;;5053670;28;20461;-74
2023/09/21 01:56:18;;;;;;;2.63;2.43;;;17.80;99.90;;;;;;5052466;28;20480;-73
2023/09/21 01:58:48;;;;;;;4.43;2.27;;;17.80;99.90;;;;;;5052847;28;20826;-73
2023/09/21 02:01:16;;;;;;;2.93;2.53;;;17.80;99.90;;;;;;5052620;28;20971;-73
2023/09/21 02:03:45;;;;;;;3.67;2.90;;;17.80;99.90;;;;;;5052450;28;21047;-74
2023/09/21 02:06:15;;;;;;;3.47;2.70;;;17.80;99.90;;;;;;5053348;28;20967;-74
2023/09/21 02:08:44;;;;;;;5.60;2.60;;;17.80;99.90;;;;;;5052258;28;20466;-73
2023/09/21 02:11:13;;;;;;;2.80;2.40;;;17.80;99.90;;;;;;5052209;28;20427;-73
2023/09/21 02:13:41;;;;;;;3.43;2.60;;;17.80;99.90;;;;;;5052208;28;20470;-73
2023/09/21 02:16:14;;;;;;;3.00;2.60;;;17.80;99.90;;;;;;5052362;28;20930;-74
2023/09/21 02:18:43;;;;;;;3.33;3.03;;;17.80;99.90;;;;;;5052249;28;20903;-73
2023/09/21 02:21:14;;;;;;;4.10;2.77;;;17.80;99.90;;;;;;5052371;28;20435;-73
2023/09/21 02:23:42;;;;;;;3.00;2.33;;;17.80;99.90;;;;;;5052167;28;20903;-73
2023/09/21 02:26:11;;;;;;;4.60;2.80;;;17.80;99.90;;;;;;5053416;28;20430;-74
2023/09/21 02:28:39;;;;;;;3.07;2.50;;;17.80;99.90;;;;;;5052076;28;20472;-74
2023/09/21 02:31:12;;;;;;;3.00;1.87;;;17.80;99.90;;;;;;5052023;28;20428;-73
2023/09/21 02:33:43;;;;;;;2.40;2.20;;;17.80;99.90;;;;;;5052198;28;20465;-73
2023/09/21 02:36:19;;;;;;;3.30;2.43;;;17.80;99.90;;;;;;5052000;28;20845;-73
2023/09/21 02:38:48;;;;;;;3.40;2.40;;;17.80;99.90;;;;;;5052174;28;20441;-73
2023/09/21 02:41:17;;;;;;;2.60;2.10;;;17.80;99.90;;;;;;5051990;28;20416;-73
2023/09/21 02:43:46;;;;;;;2.67;2.43;;;17.80;99.90;;;;;;5051733;28;20896;-73
2023/09/21 02:46:15;;;;;;;3.03;2.60;;;17.80;99.90;;;;;;5051895;28;20964;-73
2023/09/21 02:48:46;;;;;;;4.03;2.83;;;17.80;99.90;;;;;;5051939;28;20474;-74
2023/09/21 02:51:15;;;;;;;3.17;2.40;;;17.80;99.90;;;;;;5052011;28;20861;-73
2023/09/21 02:53:46;;;;;;;3.80;2.80;;;17.80;99.90;;;;;;5055111;28;20458;-73
2023/09/21 02:56:19;;;;;;;3.77;2.60;;;17.80;99.90;;;;;;5056337;28;20445;-73
2023/09/21 02:58:49;;;;;;;3.13;2.83;;;17.70;99.90;;;;;;5054400;28;20832;-73
2023/09/21 03:01:20;;;;;;;3.47;2.40;;;17.80;99.90;;;;;;5056558;28;20417;-73
2023/09/21 03:03:50;;;;;;;2.97;2.40;;;17.70;99.90;;;;;;5054823;28;20472;-73
2023/09/21 03:06:20;;;;;;;6.37;4.77;;;17.70;99.90;;;;;;5052713;28;20850;-73
2023/09/21 03:08:49;;;;;;;7.77;6.57;;;17.70;99.90;;;;;;5053140;28;20442;-73
2023/09/21 03:11:18;;;;;;;8.27;6.60;;;17.70;99.90;;;;;;5052295;28;20451;-73
2023/09/21 03:13:46;;;;;;;10.30;7.60;;;17.60;99.90;;;;;;5053115;28;20432;-73
2023/09/21 03:16:17;;;;;;;7.20;5.30;;;17.60;99.90;;;;;;5051970;28;20455;-73
2023/09/21 03:18:47;;;;;;;7.43;5.60;;;17.70;99.90;;;;;;5051715;28;20514;-73
2023/09/21 03:21:18;;;;;;;8.33;7.17;;;17.60;99.90;;;;;;5051845;28;20438;-73
2023/09/21 03:23:47;;;;;;;8.63;7.17;;;17.60;99.90;;;;;;5051581;28;20512;-73
2023/09/21 03:26:19;;;;;;;7.10;4.57;;;17.60;99.90;;;;;;5051753;28;20420;-73
2023/09/21 03:28:48;;;;;;;4.27;3.70;;;17.60;99.90;;;;;;5054334;28;20419;-74
2023/09/21 03:31:18;;;;;;;5.60;3.13;;;17.60;99.90;;;;;;5055070;28;20784;-73
2023/09/21 03:33:47;;;;;;;2.80;2.50;;;17.60;99.90;;;;;;5055051;28;20444;-74
2023/09/21 03:36:20;;;;;;;3.00;2.50;;;17.50;99.90;;;;;;5055048;28;20515;-73
2023/09/21 03:38:49;;;;;;;5.10;2.80;;;17.50;99.90;;;;;;5054988;28;20532;-73
2023/09/21 03:41:17;;;;;;;3.97;2.53;;;17.50;99.90;;;;;;5055018;28;20503;-73
2023/09/21 03:43:46;;;;;;;2.40;2.20;;;17.50;99.90;;;;;;5054964;28;20467;-73
2023/09/21 03:46:14;;;;;;;3.47;2.80;;;17.40;99.90;;;;;;5054745;28;20412;-73
2023/09/21 03:48:43;;;;;;;3.70;3.40;;;17.40;99.90;;;;;;5054893;28;20446;-74
2023/09/21 03:51:12;;;;;;;3.30;2.83;;;17.40;99.90;;;;;;5056061;28;20436;-73
2023/09/21 03:53:42;;;;;;;5.27;2.73;;;17.40;99.90;;;;;;5055383;28;20461;-73
2023/09/21 03:56:10;;;;;;;3.80;2.97;;;17.30;99.90;;;;;;5054624;28;20881;-73
2023/09/21 03:58:39;;;;;;;3.60;2.80;;;17.30;99.90;;;;;;5054573;28;20936;-73
2023/09/21 04:01:09;;;;;;;3.40;3.10;;;17.30;99.90;;;;;;5054763;28;20831;-73
2023/09/21 04:03:37;;;;;;;3.70;3.03;;;17.30;99.90;;;;;;5056350;28;20405;-73
2023/09/21 04:06:07;;;;;;;4.07;3.07;;;17.30;99.90;;;;;;5055565;28;20850;-73
2023/09/21 04:08:35;;;;;;;5.57;3.13;;;17.30;99.90;;;;;;5054819;28;20446;-73
2023/09/21 04:11:05;;;;;;;3.40;3.10;;;17.20;99.90;;;;;;5054592;28;20937;-73
2023/09/21 04:13:34;;;;;;;3.97;3.23;;;17.20;99.90;;;;;;5054463;28;20448;-73
2023/09/21 04:16:06;;;;;;;4.33;3.93;;;17.20;99.90;;;;;;5054356;28;20437;-73
2023/09/21 04:18:35;;;;;;;4.93;3.87;;;17.20;99.90;;;;;;5055656;28;20480;-73
2023/09/21 04:21:08;;;;;;;4.63;3.37;;;17.10;99.90;;;;;;5054143;28;20413;-73
2023/09/21 04:23:47;;;;;;;4.20;3.80;;;17.10;99.90;;;;;;5055399;28;20561;-73
2023/09/21 04:26:17;;;;;;;3.33;2.80;;;17.20;99.90;;;;;;5054267;28;20438;-73
2023/09/21 04:28:49;;;;;;;4.53;2.93;;;17.10;99.90;;;;;;5054329;28;20438;-73
2023/09/21 04:31:19;;;;;;;2.70;2.30;;;17.10;99.90;;;;;;5054746;28;20425;-73
2023/09/21 04:33:47;;;;;;;4.30;3.03;;;17.10;99.90;;;;;;5053864;28;20988;-73
2023/09/21 04:36:16;;;;;;;3.50;2.90;;;17.10;99.90;;;;;;5053847;28;20451;-73
2023/09/21 04:38:48;;;;;;;3.80;3.40;;;17.10;99.90;;;;;;5053343;28;20457;-73
2023/09/21 04:41:18;;;;;;;3.90;2.90;;;17.10;99.90;;;;;;5053759;28;20923;-74
2023/09/21 04:43:46;;;;;;;4.13;3.30;;;17.00;99.90;;;;;;5053591;28;20476;-73
2023/09/21 04:46:17;;;;;;;3.47;3.17;;;17.10;99.90;;;;;;5053675;28;20420;-73
2023/09/21 04:48:45;;;;;;;4.17;3.77;;;17.00;99.90;;;;;;5053571;28;20469;-73
2023/09/21 04:51:16;;;;;;;5.00;3.73;;;17.00;99.90;;;;;;5053478;28;20819;-73
2023/09/21 04:53:45;;;;;;;5.60;4.40;;;17.00;99.90;;;;;;5053513;28;20432;-73
2023/09/21 04:56:14;;;;;;;5.53;4.77;;;17.00;99.90;;;;;;5053669;28;21013;-73
2023/09/21 04:58:43;;;;;;;4.60;3.47;;;17.00;99.90;;;;;;5053251;28;20839;-73
2023/09/21 05:01:12;;;;;;;4.80;3.90;;;17.00;99.90;;;;;;5053255;28;20524;-73
2023/09/21 05:03:42;;;;;;;4.17;3.20;;;17.00;99.90;;;;;;5053127;28;20475;-73
2023/09/21 05:06:10;;;;;;;3.90;2.97;;;17.00;99.90;;;;;;5053470;28;20477;-73
2023/09/21 05:08:38;;;;;;;5.00;3.13;;;16.90;99.90;;;;;;5053249;28;20416;-73
2023/09/21 05:11:07;;;;;;;4.33;3.70;;;16.90;99.90;;;;;;5053051;28;20448;-73
2023/09/21 05:13:36;;;;;;;8.40;3.50;;;16.90;99.90;;;;;;5054366;28;20408;-73
2023/09/21 05:16:06;;;;;;;3.73;3.20;;;16.90;99.90;;;;;;5054240;28;20908;-73
2023/09/21 05:18:34;;;;;;;3.30;2.87;;;16.90;99.90;;;;;;5054252;28;20424;-73
2023/09/21 05:21:04;;;;;;;4.47;2.90;;;16.90;99.90;;;;;;5054371;28;20496;-73
2023/09/21 05:23:33;;;;;;;3.50;2.80;;;16.90;99.90;;;;;;5054668;28;20905;-73
2023/09/21 05:26:02;;;;;;;10.57;3.20;;;16.90;99.90;;;;;;5054573;28;20983;-73
2023/09/21 05:28:31;;;;;;;5.57;3.37;;;16.90;99.90;;;;;;5054226;28;20444;-73
2023/09/21 05:31:00;;;;;;;4.77;2.70;;;16.90;99.90;;;;;;5052756;28;20540;-72
2023/09/21 05:33:30;;;;;;;3.87;2.80;;;16.90;99.90;;;;;;5054202;28;20507;-72
2023/09/21 05:36:04;;;;;;;3.60;3.20;;;17.00;99.90;;;;;;5054438;28;20393;-73
2023/09/21 05:38:33;;;;;;;3.70;2.77;;;16.90;99.90;;;;;;5052597;28;20463;-73
2023/09/21 05:41:03;;;;;;;3.40;3.00;;;16.90;99.90;;;;;;5054113;28;20426;-73
2023/09/21 05:43:31;;;;;;;4.87;2.70;;;17.00;99.90;;;;;;5053639;28;20438;-73
2023/09/21 05:46:00;;;;;;;3.40;2.90;;;17.00;99.90;;;;;;5053698;28;20442;-73
2023/09/21 05:48:29;;;;;;;3.20;2.70;;;17.00;99.90;;;;;;5053675;28;20448;-73
2023/09/21 05:50:59;;;;;;;4.53;3.00;;;17.00;99.90;;;;;;5053081;28;20444;-73
2023/09/21 05:53:27;;;;;;;4.30;2.73;;;17.00;99.90;;;;;;5052271;28;20477;-73
2023/09/21 05:55:55;;;;;;;4.47;3.00;;;17.00;99.90;;;;;;5052395;28;20523;-73
2023/09/21 05:58:23;;;;;;;4.43;3.03;;;17.10;99.90;;;;;;5053561;28;20438;-73
2023/09/21 06:00:52;;;;;;;3.63;3.17;;;17.00;99.90;;;;;;5053584;28;20938;-73
2023/09/21 06:03:20;;;;;;;5.97;3.30;;;17.10;99.90;;;;;;5054045;28;20835;-73
2023/09/21 06:05:49;;;;;;;4.20;3.33;;;17.10;99.90;;;;;;5053374;28;20935;-73
2023/09/21 06:08:19;;;;;;;3.20;2.83;;;17.10;99.90;;;;;;5052071;28;20973;-73
2023/09/21 06:10:47;;;;;;;3.00;2.70;;;17.20;99.90;;;;;;5053242;28;20473;-73
2023/09/21 06:13:15;;;;;;;3.67;2.90;;;17.10;99.90;;;;;;5052047;28;20424;-73
2023/09/21 06:15:46;;;;;;;2.50;2.30;;;17.20;99.90;;;;;;5053449;28;20436;-73
2023/09/21 06:18:17;;;;;;;3.30;2.60;;;17.30;99.90;;;;;;5053903;28;20418;-73
2023/09/21 06:20:45;;;;;;;3.70;3.23;;;17.40;99.90;;;;;;5053741;28;20393;-73
2023/09/21 06:23:17;;;;;;;3.67;2.70;;;17.40;99.90;;;;;;5053297;28;20447;-73
2023/09/21 06:25:45;;;;;;;2.93;2.30;;;17.50;99.90;;;;;;5054115;28;20474;-73
2023/09/21 06:28:15;;;;;;;3.23;2.10;;;17.60;99.90;;;;;;5053331;28;20413;-73
2023/09/21 06:30:44;;;;;;;4.47;3.30;;;17.60;99.90;;;;;;5053562;28;20469;-73
2023/09/21 06:33:13;;;;;;;4.47;3.43;;;17.70;99.90;;;;;;5054136;28;20411;-73
2023/09/21 06:35:42;;;;;;;3.73;2.70;;;17.70;99.90;;;;;;5053379;28;20545;-73
2023/09/21 06:38:10;;;;;;;4.53;2.80;;;17.80;99.90;;;;;;5053165;28;20434;-73
2023/09/21 06:40:39;;;;;;;4.83;2.87;;;17.80;99.90;;;;;;5053425;28;20508;-73
2023/09/21 06:43:08;;;;;;;4.97;2.83;;;17.80;99.90;;;;;;5052982;28;20945;-73
2023/09/21 06:45:36;;;;;;;5.30;2.40;;;17.90;99.90;;;;;;5051937;28;20466;-73
2023/09/21 06:48:05;;;;;;;3.30;3.00;;;17.90;99.90;;;;;;5052252;28;20795;-73
2023/09/21 06:50:33;;;;;;;3.17;2.20;;;17.90;99.90;;;;;;5052909;28;20497;-73
2023/09/21 06:53:01;;;;;;;3.70;2.83;;;18.00;99.90;;;;;;5053262;28;20525;-73
2023/09/21 06:55:29;;;;;;;5.80;2.80;;;18.00;99.90;;;;;;5052690;28;21015;-73
2023/09/21 06:57:59;;;;;;;3.53;2.53;;;18.00;99.90;;;;;;5053374;28;20473;-73
2023/09/21 07:00:27;;;;;;;3.53;2.60;;;18.00;99.90;;;;;;5054630;28;20929;-73
2023/09/21 07:02:55;;;;;;;4.73;2.47;;;18.00;99.90;;;;;;5060662;28;20932;-73
2023/09/21 07:05:24;;;;;;;4.20;3.03;;;18.10;99.90;;;;;;5058475;28;20545;-73
2023/09/21 07:07:53;;;;;;;3.90;3.10;;;18.10;99.90;;;;;;5056023;28;20456;-73
2023/09/21 07:10:22;;;;;;;4.27;2.43;;;18.10;99.90;;;;;;5056012;28;20519;-72
2023/09/21 07:12:50;;;;;;;6.33;3.47;;;18.20;99.90;;;;;;5057150;28;20535;-73
2023/09/21 07:15:21;;;;;;;5.20;3.10;;;18.20;99.90;;;;;;5056239;28;20847;-73
2023/09/21 07:17:50;;;;;;;3.30;2.30;;;18.20;99.90;;;;;;5056920;28;20445;-73
2023/09/21 07:20:23;;;;;;;5.67;3.67;;;18.30;99.90;;;;;;5056948;28;20495;-73
2023/09/21 07:22:51;;;;;;;3.17;2.57;;;18.30;99.90;;;;;;5055616;28;20416;-72
2023/09/21 07:25:19;;;;;;;4.10;2.90;;;18.40;99.90;;;;;;5055680;28;20972;-73
2023/09/21 07:27:48;;;;;;;3.60;2.50;;;18.40;99.90;;;;;;5055548;28;20935;-72
2023/09/21 07:30:16;;;;;;;4.13;2.57;;;18.50;99.90;;;;;;5055221;28;20557;-73
2023/09/21 07:32:46;;;;;;;3.70;3.27;;;18.50;99.90;;;;;;5056582;28;20467;-73
2023/09/21 07:35:15;;;;;;;4.90;2.80;;;18.60;99.90;;;;;;5056421;28;20453;-73
2023/09/21 07:37:46;;;;;;;2.90;2.30;;;18.60;99.90;;;;;;5056325;28;20442;-72
2023/09/21 07:40:14;;;;;;;3.97;2.97;;;18.70;99.90;;;;;;5056580;28;20410;-74
2023/09/21 07:42:45;;;;;;;3.87;3.07;;;18.70;99.90;;;;;;5054940;28;20504;-73
2023/09/21 07:45:13;;;;;;;6.40;2.47;;;18.70;99.90;;;;;;5057141;28;20452;-74
2023/09/21 07:47:42;;;;;;;5.20;2.43;;;18.80;99.90;;;;;;5055063;28;20413;-72
2023/09/21 07:50:12;;;;;;;3.90;2.47;;;18.90;99.90;;;;;;5055203;28;20487;-73
2023/09/21 07:52:41;;;;;;;2.90;2.43;;;18.90;99.90;;;;;;5056561;28;20465;-73
2023/09/21 07:55:10;;;;;;;3.10;2.43;;;19.00;99.90;;;;;;5054822;28;20466;-72
2023/09/21 07:57:39;;;;;;;5.20;3.63;;;19.10;99.90;;;;;;5056150;28;20437;-73
2023/09/21 08:00:09;;;;;;;3.53;2.63;;;19.10;99.90;;;;;;5056196;28;20426;-73
2023/09/21 08:02:38;;;;;;;4.60;2.90;;;19.20;99.90;;;;;;5056050;28;20426;-74
2023/09/21 08:05:06;;;;;;;3.80;2.30;;;19.40;99.90;;;;;;5056075;28;20450;-73
2023/09/21 08:07:37;;;;;;;4.40;2.80;;;19.40;99.90;;;;;;5056538;28;20978;-72
2023/09/21 08:10:06;;;;;;;3.50;2.30;;;19.60;99.90;;;;;;5056313;28;20928;-73
2023/09/21 08:12:38;;;;;;;2.90;2.60;;;19.70;99.90;;;;;;5054464;28;20480;-73
2023/09/21 08:15:11;;;;;;;3.53;2.50;;;19.80;99.90;;;;;;5055439;28;20508;-73
2023/09/21 08:17:39;;;;;;;2.77;2.30;;;19.90;99.90;;;;;;5056346;28;20425;-73
2023/09/21 08:20:09;;;;;;;3.83;2.97;;;19.90;99.90;;;;;;5054455;28;21036;-73
2023/09/21 08:22:39;;;;;;;2.80;2.03;;;20.00;99.90;;;;;;5054736;28;20437;-73
2023/09/21 08:25:08;;;;;;;3.30;2.50;;;20.20;99.90;;;;;;5054425;28;20466;-74
2023/09/21 08:27:39;;;;;;;4.83;2.80;;;20.30;99.90;;;;;;5055853;28;20444;-73
2023/09/21 08:30:09;;;;;;;2.83;2.17;;;20.40;99.90;;;;;;5056230;28;20509;-73
2023/09/21 08:32:39;;;;;;;3.80;2.80;;;20.50;99.90;;;;;;5055750;28;20999;-73
2023/09/21 08:35:08;;;;;;;2.43;2.10;;;20.60;99.90;;;;;;5053722;28;20460;-73
2023/09/21 08:37:36;;;;;;;6.13;2.97;;;20.70;99.90;;;;;;5055617;28;20438;-74
2023/09/21 08:40:07;;;;;;;4.37;2.93;;;20.90;99.90;;;;;;5053944;28;20445;-73
2023/09/21 08:42:37;;;;;;;2.87;2.57;;;21.00;99.90;;;;;;5055510;28;21012;-74
2023/09/21 08:45:09;;;;;;;3.57;2.50;;;21.10;99.90;;;;;;5054246;28;20501;-73
2023/09/21 08:47:39;;;;;;;4.10;3.00;;;21.20;99.90;;;;;;5056087;28;20414;-73
2023/09/21 08:50:08;;;;;;;4.23;2.50;;;21.30;99.90;;;;;;5054314;28;20453;-73
2023/09/21 08:52:37;;;;;;;3.20;2.40;;;21.50;99.90;;;;;;5055132;28;20466;-73
2023/09/21 08:55:10;;;;;;;2.50;1.90;;;21.50;99.90;;;;;;5054985;28;20561;-74
2023/09/21 08:57:39;;;;;;;2.67;2.20;;;21.60;99.90;;;;;;5054151;28;20964;-73
2023/09/21 09:00:09;;;;;;;2.77;2.43;;;21.70;99.90;;;;;;5056041;28;20776;-73
2023/09/21 09:02:37;;;;;;;3.20;2.30;;;21.80;99.90;;;;;;5053509;28;20450;-74
2023/09/21 09:05:07;;;;;;;4.80;3.10;;;21.90;99.90;;;;;;5054763;28;20466;-75
2023/09/21 09:07:39;;;;;;;4.73;2.47;;;22.00;99.90;;;;;;5053746;28;20529;-74
2023/09/21 09:10:11;;;;;;;3.80;2.90;;;22.00;99.90;;;;;;5053740;28;20492;-74
2023/09/21 09:12:40;;;;;;;4.43;2.23;;;22.00;99.90;;;;;;5054441;28;20465;-75
2023/09/21 09:15:10;;;;;;;3.07;2.40;;;22.10;99.90;;;;;;5054619;28;20865;-74
2023/09/21 09:17:40;;;;;;;2.50;2.10;;;22.10;99.90;;;;;;5054952;28;20441;-75
2023/09/21 09:20:09;;;;;;;6.50;2.67;;;22.10;99.90;;;;;;5054470;28;20446;-75
2023/09/21 09:22:38;;;;;;;3.30;2.23;;;22.10;99.90;;;;;;5055566;28;20438;-75
2023/09/21 09:25:09;;;;;;;2.43;1.90;;;22.10;99.90;;;;;;5053916;28;20487;-75
2023/09/21 09:27:39;;;;;;;5.40;2.30;;;22.20;99.90;;;;;;5055791;28;20513;-75
2023/09/21 09:30:11;;;;;;;4.23;2.53;;;22.20;99.90;;;;;;5053972;28;20441;-75
2023/09/21 09:32:41;;;;;;;4.90;2.33;;;22.20;99.90;;;;;;5054090;28;20454;-75
2023/09/21 09:35:13;;;;;;;3.00;2.23;;;22.20;99.90;;;;;;5054910;28;20969;-75
2023/09/21 09:37:42;;;;;;;3.37;2.20;;;22.30;99.90;;;;;;5055573;28;20490;-75
2023/09/21 09:40:12;;;;;;;3.00;2.37;;;22.30;99.90;;;;;;5054620;28;20430;-75
2023/09/21 09:42:43;;;;;;;2.50;1.80;;;22.40;99.90;;;;;;5055046;28;20841;-75
2023/09/21 09:45:18;;;;;;;2.03;1.80;;;22.40;99.90;;;;;;5053405;28;20454;-75
2023/09/21 09:47:54;;;;;;;4.57;2.30;;;22.50;99.90;;;;;;5055359;28;20454;-75
2023/09/21 09:50:25;;;;;;;2.87;2.37;;;22.50;99.90;;;;;;5054615;28;20476;-75
2023/09/21 09:53:01;;;;;;;3.70;2.97;;;22.50;99.90;;;;;;5054693;28;20976;-75
2023/09/21 09:55:31;;;;;;;3.63;2.40;;;22.60;99.90;;;;;;5053402;28;20872;-75
2023/09/21 09:58:01;;;;;;;3.73;2.27;;;22.70;99.90;;;;;;5060605;28;20559;-75
2023/09/21 10:00:31;;;;;;;2.73;2.17;;;22.80;99.90;;;;;;5056335;28;20415;-75
2023/09/21 10:03:00;;;;;;;3.60;2.27;;;22.90;99.90;;;;;;5055215;28;20430;-75
2023/09/21 10:05:29;;;;;;;3.30;2.30;;;23.00;99.90;;;;;;5054607;28;20515;-75
2023/09/21 10:08:00;;;;;;;3.10;1.97;;;23.00;99.90;;;;;;5055027;28;20438;-75
2023/09/21 10:10:31;;;;;;;2.60;2.13;;;23.10;99.90;;;;;;5053389;28;20503;-75
2023/09/21 10:13:01;;;;;;;3.30;2.30;;;23.20;99.90;;;;;;5054679;28;20450;-75
2023/09/21 10:15:33;;;;;;;3.83;2.30;;;23.30;99.90;;;;;;5054741;28;20466;-75
2023/09/21 10:18:02;;;;;;;7.30;2.57;;;23.30;99.90;;;;;;5054557;28;20446;-75
2023/09/21 10:20:32;;;;;;;3.47;2.53;;;23.30;99.90;;;;;;5054175;28;20442;-76
2023/09/21 10:23:05;;;;;;;3.53;2.27;;;23.30;99.90;;;;;;5053300;28;20430;-75
2023/09/21 10:25:38;;;;;;;4.07;2.47;;;23.40;99.90;;;;;;5054244;28;20454;-75
2023/09/21 10:28:37;;;;;;;4.13;2.47;;;23.40;99.90;;;;;;5054467;28;20419;-75
2023/09/21 10:31:21;;;;;;;2.60;1.97;;;23.40;99.90;;;;;;5053295;28;20812;-75
2023/09/21 10:34:04;;;;;;;3.00;2.00;;;23.40;99.90;;;;;;5056744;28;20859;-75
2023/09/21 10:36:33;;;;;;;4.80;2.43;;;23.40;99.90;;;;;;5061268;28;20459;-75
2023/09/21 10:39:24;;;;;;;3.90;2.47;;;23.50;99.90;;;;;;5061953;28;20456;-75
2023/09/21 10:41:54;;;;;;;3.27;2.20;;;23.60;99.90;;;;;;5060429;28;20519;-76
2023/09/21 10:45:03;;;;;;;4.10;2.10;;;23.60;99.90;;;;;;5061202;28;20464;-75
2023/09/21 10:47:40;;;;;;;6.17;2.00;;;23.70;99.90;;;;;;5060913;28;20429;-76
2023/09/21 10:50:13;;;;;;;5.87;2.70;;;23.80;99.90;;;;;;5060763;28;20471;-75
2023/09/21 10:52:43;;;;;;;3.73;2.60;;;23.80;99.90;;;;;;5060341;28;20418;-75
2023/09/21 10:55:13;;;;;;;3.10;2.40;;;23.90;99.90;;;;;;5059790;28;20990;-76
2023/09/21 10:57:43;;;;;;;4.87;2.70;;;23.90;99.90;;;;;;5058212;28;20448;-75
2023/09/21 11:00:21;;;;;;;3.60;2.70;;;23.90;99.90;;;;;;5058292;28;20545;-75
2023/09/21 11:02:53;;;;;;;2.90;2.30;;;24.00;99.90;;;;;;5058313;28;20429;-75
2023/09/21 11:05:22;;;;;;;3.63;2.47;;;24.10;99.90;;;;;;5059649;28;20461;-75
2023/09/21 11:07:51;;;;;;;3.30;2.33;;;24.10;99.90;;;;;;5059395;28;20437;-75
2023/09/21 11:10:20;;;;;;;4.60;2.40;;;24.20;99.90;;;;;;5060312;28;20438;-75
2023/09/21 11:12:48;;;;;;;3.60;2.43;;;24.10;99.90;;;;;;5059804;28;20438;-76
2023/09/21 11:15:19;;;;;;;3.03;2.63;;;24.20;99.90;;;;;;5059158;28;21009;-75
2023/09/21 11:17:48;;;;;;;3.83;2.93;;;24.20;99.90;;;;;;5058058;28;20442;-75
2023/09/21 11:20:19;;;;;;;3.30;2.47;;;24.30;99.90;;;;;;5058002;28;20511;-75
2023/09/21 11:22:50;;;;;;;4.67;3.20;;;24.30;99.90;;;;;;5059879;28;20785;-75
2023/09/21 11:25:20;;;;;;;3.80;2.43;;;24.30;99.90;;;;;;5058028;28;20549;-75
2023/09/21 11:27:50;;;;;;;3.00;2.20;;;24.30;99.90;;;;;;5059824;28;20452;-76
2023/09/21 11:30:22;;;;;;;3.40;2.77;;;24.30;99.90;;;;;;5059092;28;20441;-75
2023/09/21 11:32:53;;;;;;;2.63;2.20;;;24.40;99.90;;;;;;5059210;28;20431;-75
2023/09/21 11:35:23;;;;;;;2.93;2.30;;;24.40;99.90;;;;;;5059257;28;20484;-75
2023/09/21 11:37:51;;;;;;;2.90;2.53;;;24.40;99.90;;;;;;5059165;28;21009;-75
2023/09/21 11:40:22;;;;;;;5.47;2.90;;;24.40;99.90;;;;;;5059332;28;20925;-75
2023/09/21 11:42:56;;;;;;;4.30;2.50;;;24.40;99.90;;;;;;5059012;28;20533;-75
2023/09/21 11:45:27;;;;;;;4.70;2.20;;;24.40;99.90;;;;;;5059288;28;20984;-75
2023/09/21 11:47:57;;;;;;;2.90;2.33;;;24.40;99.90;;;;;;5057492;28;20415;-75
2023/09/21 11:50:27;;;;;;;3.30;2.47;;;24.40;99.90;;;;;;5056150;28;20893;-75
2023/09/21 11:52:56;;;;;;;3.73;2.80;;;24.40;99.90;;;;;;5056110;28;20437;-75
2023/09/21 11:55:26;;;;;;;2.37;2.07;;;24.30;99.90;;;;;;5055599;28;20853;-75
2023/09/21 11:58:07;;;;;;;3.20;2.30;;;24.40;99.90;;;;;;5054405;28;20496;-75
2023/09/21 12:03:24;;;;;;;4.60;2.80;;;24.40;99.90;;;;;;5048493;28;20528;-75
2023/09/21 12:05:55;;;;;;;2.40;2.00;;;24.40;99.90;;;;;;5056130;28;20422;-76
2023/09/21 12:08:25;;;;;;;3.20;2.37;;;24.40;99.90;;;;;;5056182;28;20468;-76
2023/09/21 12:10:54;;;;;;;4.10;3.50;;;24.40;99.90;;;;;;5055552;28;20488;-75
2023/09/21 12:13:23;;;;;;;2.77;2.20;;;24.50;99.90;;;;;;5055565;28;20775;-75
2023/09/21 12:15:55;;;;;;;2.77;2.47;;;24.50;99.90;;;;;;5055403;28;20487;-75
2023/09/21 12:18:28;;;;;;;3.43;2.40;;;24.50;99.90;;;;;;5055413;28;20866;-75
2023/09/21 12:21:00;;;;;;;4.27;2.10;;;24.50;99.90;;;;;;5054278;28;20438;-75
2023/09/21 12:23:30;;;;;;;2.40;2.03;;;24.40;99.90;;;;;;5055290;28;20418;-75
2023/09/21 12:25:58;;;;;;;3.13;2.20;;;24.40;99.90;;;;;;5053949;28;20965;-76
2023/09/21 12:28:27;;;;;;;4.07;3.23;;;24.40;99.90;;;;;;5055118;28;20529;-75
2023/09/21 12:30:57;;;;;;;2.60;2.40;;;24.40;99.90;;;;;;5055180;28;20438;-75
2023/09/21 12:33:29;;;;;;;4.93;2.50;;;24.40;99.90;;;;;;5053862;28;20461;-75
2023/09/21 12:36:12;;;;;;;2.80;2.07;;;24.40;99.90;;;;;;5055309;28;20437;-75
2023/09/21 12:38:44;;;;;;;3.00;2.33;;;24.40;99.90;;;;;;5055017;28;20472;-75
2023/09/21 12:41:14;;;;;;;3.30;2.23;;;24.40;99.90;;;;;;5053606;28;20450;-75
2023/09/21 12:43:42;;;;;;;2.77;2.23;;;24.40;99.90;;;;;;5054966;28;20484;-75
2023/09/21 12:46:12;;;;;;;3.33;2.53;;;24.50;99.90;;;;;;5053617;28;21011;-75
2023/09/21 12:48:40;;;;;;;3.40;2.23;;;24.50;99.90;;;;;;5058922;28;20434;-75
2023/09/21 12:51:09;;;;;;;3.40;2.40;;;24.50;99.90;;;;;;5056478;28;20438;-75
2023/09/21 12:53:37;;;;;;;3.83;2.07;;;24.50;99.90;;;;;;5055592;28;20437;-75
2023/09/21 12:56:06;;;;;;;3.30;2.57;;;24.50;99.90;;;;;;5055181;28;20492;-75
2023/09/21 12:58:35;;;;;;;3.37;2.60;;;24.50;99.90;;;;;;5054760;28;20469;-75
2023/09/21 13:01:05;;;;;;;2.87;2.27;;;24.60;99.90;;;;;;5053115;28;20549;-75
2023/09/21 13:03:35;;;;;;;2.33;2.10;;;24.50;99.90;;;;;;5055482;28;20418;-75
2023/09/21 13:06:06;;;;;;;3.03;2.20;;;24.60;99.90;;;;;;5053405;28;20496;-75